Shimonoseki, Japan
Current Conditions -  °F | °C
As of 11:00 AM on Tuesday 21 Oct 2014 (Local Time) from RJFR Reporting Station
Scattered Clouds Scattered Clouds  
Wind Chill: 72°   Ceiling: Unl
Heat Index: 72°   Visibility: 6mi
Dew Point: 66°   Wind: 3mph
Humidity: 83%   Direction: NA
Pressure: 30"   Gusts: NA
Location:  33.96°N, 130.94°E
Report Text: RJFR 210200Z VRB03KT 9999 FEW015 SCT080 22/19 Q1016
Loading
Personal Weather Stations






























Interactive Weather Map
Tropical Storm Tracking
New forecast layout! Learn more

10-Day Weather Forecast

Advertisements
Track Severe Weather on mobile